Time;durP1;ratioP1;P1;durP2;ratioP2;P2;SDS_P1;SDS_P2;PMS_P1;PMS_P2;Temp;Humidity;BMP_temperature;BMP_pressure;BME280_temperature;BME280_humidity;BME280_pressure;Samples;Min_cycle;Max_cycle;Signal;HPM_P1;HPM_P2
2022/05/29 00:01:52;;;;;;;10.00;5.40;;;;;;;;;;5021895;28;20415;-85
2022/05/29 00:04:19;;;;;;;6.10;4.40;;;;;;;;;;5021387;28;20415;-85
2022/05/29 00:06:48;;;;;;;8.60;5.13;;;;;;;;;;5021598;28;20458;-84
2022/05/29 00:09:15;;;;;;;6.93;4.37;;;;;;;;;;5023558;28;20772;-84
2022/05/29 00:11:41;;;;;;;8.37;4.40;;;;;;;;;;5040301;28;20404;-84
2022/05/29 00:14:07;;;;;;;8.77;5.63;;;;;;;;;;5040774;28;20403;-83
2022/05/29 00:16:33;;;;;;;8.90;4.77;;;;;;;;;;5024649;28;20436;-85
2022/05/29 00:18:59;;;;;;;11.10;5.03;;;;;;;;;;5023306;28;20629;-86
2022/05/29 00:21:26;;;;;;;10.60;5.10;;;;;;;;;;5023278;28;20419;-85
2022/05/29 00:23:53;;;;;;;11.53;5.67;;;;;;;;;;5006120;28;20403;-85
2022/05/29 00:26:19;;;;;;;10.20;6.50;;;;;;;;;;5024286;28;20547;-85
2022/05/29 00:28:46;;;;;;;9.07;5.90;;;;;;;;;;5023658;28;20787;-85
2022/05/29 00:31:13;;;;;;;10.03;6.13;;;;;;;;;;5023731;28;20407;-85
2022/05/29 00:33:39;;;;;;;12.37;6.87;;;;;;;;;;5023583;28;20411;-84
2022/05/29 00:36:06;;;;;;;37.10;22.03;;;;;;;;;;5006149;28;20427;-84
2022/05/29 00:38:38;;;;;;;8.97;6.60;;;;;;;;;;5022701;28;20447;-85
2022/05/29 00:41:18;;;;;;;8.50;5.30;;;;;;;;;;5005151;28;20438;-85
2022/05/29 00:43:46;;;;;;;14.07;6.90;;;;;;;;;;5005281;28;20407;-85
2022/05/29 00:46:12;;;;;;;9.87;5.87;;;;;;;;;;5022680;28;20985;-85
2022/05/29 00:48:38;;;;;;;7.53;5.73;;;;;;;;;;5006718;28;20415;-84
2022/05/29 00:51:06;;;;;;;18.53;6.90;;;;;;;;;;5030700;28;20408;-84
2022/05/29 00:53:34;;;;;;;10.57;5.90;;;;;;;;;;5022785;28;20422;-86
2022/05/29 00:56:06;;;;;;;9.30;5.33;;;;;;;;;;5022689;28;20427;-84
2022/05/29 00:58:32;;;;;;;11.00;6.30;;;;;;;;;;5022676;28;20546;-84
2022/05/29 01:00:58;;;;;;;9.70;5.23;;;;;;;;;;5026553;28;20399;-84
2022/05/29 01:03:24;;;;;;;10.50;5.03;;;;;;;;;;5008758;28;20406;-84
2022/05/29 01:05:51;;;;;;;7.60;5.50;;;;;;;;;;5021763;23;20435;-82
2022/05/29 01:08:20;;;;;;;8.57;5.70;;;;;;;;;;5042502;28;20498;-82
2022/05/29 01:11:02;;;;;;;14.20;6.63;;;;;;;;;;5044195;28;20407;-82
2022/05/29 01:13:47;;;;;;;14.50;7.33;;;;;;;;;;5044228;28;20402;-82
2022/05/29 01:16:13;;;;;;;12.67;6.47;;;;;;;;;;5044971;28;20426;-81
2022/05/29 01:18:39;;;;;;;12.53;6.40;;;;;;;;;;5043734;28;20810;-82
2022/05/29 01:21:22;;;;;;;12.40;6.13;;;;;;;;;;5044154;28;20442;-82
2022/05/29 01:23:55;;;;;;;8.53;5.70;;;;;;;;;;5044477;28;20490;-81
2022/05/29 01:26:40;;;;;;;11.10;5.03;;;;;;;;;;5041586;28;20429;-82
2022/05/29 01:29:07;;;;;;;11.10;5.90;;;;;;;;;;5024583;28;20595;-82
2022/05/29 01:31:34;;;;;;;8.30;4.70;;;;;;;;;;5042033;28;20949;-82
2022/05/29 01:34:23;;;;;;;7.57;4.53;;;;;;;;;;5034238;28;20446;-82
2022/05/29 01:36:49;;;;;;;6.70;4.47;;;;;;;;;;4986288;28;20578;-82
2022/05/29 01:39:27;;;;;;;13.10;5.00;;;;;;;;;;5030681;28;20810;-81
2022/05/29 01:41:57;;;;;;;5.90;4.30;;;;;;;;;;5027555;28;20396;-82
2022/05/29 01:44:44;;;;;;;5.57;4.07;;;;;;;;;;5025142;28;20407;-83
2022/05/29 01:47:21;;;;;;;6.73;3.20;;;;;;;;;;5024136;28;20423;-82
2022/05/29 01:49:52;;;;;;;5.20;4.20;;;;;;;;;;5024198;28;20415;-82
2022/05/29 01:52:18;;;;;;;7.63;4.20;;;;;;;;;;5024390;28;20414;-82
2022/05/29 01:54:51;;;;;;;8.00;4.23;;;;;;;;;;5023834;28;20407;-82
2022/05/29 01:57:21;;;;;;;8.13;5.33;;;;;;;;;;5024228;28;20430;-82
2022/05/29 01:59:53;;;;;;;7.03;3.93;;;;;;;;;;5024256;28;20442;-82
2022/05/29 02:02:22;;;;;;;5.67;3.70;;;;;;;;;;5024279;28;20416;-82
2022/05/29 02:04:50;;;;;;;6.57;3.73;;;;;;;;;;5023954;28;20408;-82
2022/05/29 02:10:07;;;;;;;5.53;3.50;;;;;;;;;;5025386;28;20438;-82
2022/05/29 02:12:34;;;;;;;5.20;3.27;;;;;;;;;;5024555;28;20461;-82
2022/05/29 02:15:03;;;;;;;7.60;3.40;;;;;;;;;;5025285;28;20403;-82
2022/05/29 02:17:33;;;;;;;5.67;3.57;;;;;;;;;;5023927;28;20424;-82
2022/05/29 02:20:03;;;;;;;4.90;3.77;;;;;;;;;;5025174;28;20444;-82
2022/05/29 02:22:30;;;;;;;11.07;4.53;;;;;;;;;;5024525;28;20385;-82
2022/05/29 02:25:01;;;;;;;5.27;4.77;;;;;;;;;;5023794;28;20403;-82
2022/05/29 02:27:31;;;;;;;6.17;3.40;;;;;;;;;;5022941;28;20426;-82
2022/05/29 02:29:58;;;;;;;6.00;3.80;;;;;;;;;;5024168;28;20415;-82
2022/05/29 02:32:53;;;;;;;4.93;3.60;;;;;;;;;;5023488;28;20408;-82
2022/05/29 02:35:27;;;;;;;5.57;3.90;;;;;;;;;;5006305;28;20500;-82
2022/05/29 02:37:56;;;;;;;6.37;3.73;;;;;;;;;;5023258;28;20394;-83
2022/05/29 02:40:31;;;;;;;13.27;4.43;;;;;;;;;;5023149;28;20791;-82
2022/05/29 02:43:18;;;;;;;5.57;3.87;;;;;;;;;;5023190;28;20399;-82
2022/05/29 02:45:50;;;;;;;4.80;3.70;;;;;;;;;;5022723;28;20392;-82
2022/05/29 02:48:34;;;;;;;4.23;3.40;;;;;;;;;;5021553;28;20808;-82
2022/05/29 02:51:09;;;;;;;9.90;4.50;;;;;;;;;;5023403;28;20395;-82
2022/05/29 02:53:35;;;;;;;6.07;3.17;;;;;;;;;;5023552;28;20387;-82
2022/05/29 02:56:05;;;;;;;6.43;3.50;;;;;;;;;;5024846;28;21007;-84
2022/05/29 02:58:33;;;;;;;3.90;3.33;;;;;;;;;;5026350;28;20470;-82
2022/05/29 03:01:05;;;;;;;5.77;3.53;;;;;;;;;;5017506;28;20408;-81
2022/05/29 03:03:33;;;;;;;7.90;3.30;;;;;;;;;;5014090;28;20396;-81
2022/05/29 03:06:09;;;;;;;6.20;3.50;;;;;;;;;;5014191;28;20442;-81
2022/05/29 03:08:46;;;;;;;7.10;4.10;;;;;;;;;;5015739;28;20415;-81
2022/05/29 03:11:31;;;;;;;7.83;4.07;;;;;;;;;;5015206;28;20462;-81
2022/05/29 03:14:11;;;;;;;10.10;3.67;;;;;;;;;;5017596;28;20415;-82
2022/05/29 03:16:58;;;;;;;5.23;4.00;;;;;;;;;;5020046;28;20510;-83
2022/05/29 03:19:27;;;;;;;7.83;3.87;;;;;;;;;;5017283;28;20454;-82
2022/05/29 03:21:59;;;;;;;7.27;3.47;;;;;;;;;;5019430;28;20442;-82
2022/05/29 03:24:29;;;;;;;7.27;4.40;;;;;;;;;;5017739;28;20400;-81
2022/05/29 03:26:58;;;;;;;6.57;3.37;;;;;;;;;;5019403;28;20422;-82
2022/05/29 03:29:47;;;;;;;6.33;3.97;;;;;;;;;;5019410;28;20431;-82
2022/05/29 03:32:13;;;;;;;8.13;3.60;;;;;;;;;;5008934;28;20763;-82
2022/05/29 03:34:39;;;;;;;4.77;3.40;;;;;;;;;;5001860;28;20407;-80
2022/05/29 03:37:06;;;;;;;7.20;4.30;;;;;;;;;;5002067;28;20522;-81
2022/05/29 03:39:33;;;;;;;7.17;3.43;;;;;;;;;;5020529;28;20533;-82
2022/05/29 03:41:59;;;;;;;6.67;3.47;;;;;;;;;;5020406;28;20407;-82
2022/05/29 03:44:25;;;;;;;12.33;3.57;;;;;;;;;;5020488;28;20407;-82
2022/05/29 03:46:51;;;;;;;6.83;3.13;;;;;;;;;;5021200;28;20423;-82
2022/05/29 03:49:19;;;;;;;6.23;3.33;;;;;;;;;;5022256;28;20407;-82
2022/05/29 03:51:45;;;;;;;5.13;2.80;;;;;;;;;;5033032;28;20439;-81
2022/05/29 03:54:12;;;;;;;7.00;3.30;;;;;;;;;;5029064;28;20411;-82
2022/05/29 03:56:38;;;;;;;7.13;3.60;;;;;;;;;;5007094;28;20501;-83
2022/05/29 03:59:04;;;;;;;4.10;3.00;;;;;;;;;;5044873;28;20446;-82
2022/05/29 04:01:32;;;;;;;6.23;3.30;;;;;;;;;;5046197;28;20473;-82
2022/05/29 04:03:59;;;;;;;6.93;2.77;;;;;;;;;;5028541;28;20434;-82
2022/05/29 04:06:26;;;;;;;4.23;3.57;;;;;;;;;;5046130;28;20493;-82
2022/05/29 04:14:23;;;;;;;8.23;4.50;;;;;;;;;;5046201;28;20385;-82
2022/05/29 04:16:50;;;;;;;9.93;4.57;;;;;;;;;;5045609;28;20434;-82
2022/05/29 04:19:16;;;;;;;7.53;3.70;;;;;;;;;;5045432;28;20504;-82
2022/05/29 04:21:43;;;;;;;4.77;3.10;;;;;;;;;;5045087;28;20407;-83
2022/05/29 04:24:09;;;;;;;4.60;2.93;;;;;;;;;;5045945;28;20418;-82
2022/05/29 04:26:36;;;;;;;5.00;3.03;;;;;;;;;;5046170;28;20425;-81
2022/05/29 04:29:03;;;;;;;6.77;3.00;;;;;;;;;;5039634;28;20406;-81
2022/05/29 04:31:29;;;;;;;4.43;2.90;;;;;;;;;;5037030;28;20795;-81
2022/05/29 04:33:55;;;;;;;4.37;2.90;;;;;;;;;;5018237;28;20407;-82
2022/05/29 04:36:22;;;;;;;4.83;2.73;;;;;;;;;;5036908;28;20458;-81
2022/05/29 04:38:48;;;;;;;5.20;3.43;;;;;;;;;;5036422;28;20892;-81
2022/05/29 04:41:14;;;;;;;5.67;3.23;;;;;;;;;;5036846;28;20437;-82
2022/05/29 04:43:40;;;;;;;4.50;3.07;;;;;;;;;;5036532;28;20407;-81
2022/05/29 04:46:07;;;;;;;4.27;3.10;;;;;;;;;;5037352;28;20450;-82
2022/05/29 04:48:33;;;;;;;5.10;2.90;;;;;;;;;;5037512;28;20502;-81
2022/05/29 04:51:00;;;;;;;5.93;3.10;;;;;;;;;;5019583;28;20406;-82
2022/05/29 04:53:27;;;;;;;6.80;3.00;;;;;;;;;;5037516;28;20924;-82
2022/05/29 04:55:54;;;;;;;4.70;3.20;;;;;;;;;;5038629;28;20779;-81
2022/05/29 04:58:20;;;;;;;4.07;3.37;;;;;;;;;;5037831;28;20403;-81
2022/05/29 05:00:46;;;;;;;4.30;3.60;;;;;;;;;;5019466;28;20801;-81
2022/05/29 05:03:12;;;;;;;4.93;3.40;;;;;;;;;;5020532;28;20414;-82
2022/05/29 05:05:39;;;;;;;8.03;3.93;;;;;;;;;;5037872;28;20403;-82
2022/05/29 05:08:05;;;;;;;3.90;2.80;;;;;;;;;;5020405;28;20798;-82
2022/05/29 05:10:31;;;;;;;4.37;2.90;;;;;;;;;;5038353;28;20824;-82
2022/05/29 05:12:57;;;;;;;8.20;4.13;;;;;;;;;;5038668;28;20949;-82
2022/05/29 05:15:23;;;;;;;8.70;5.03;;;;;;;;;;5039144;28;20406;-82
2022/05/29 05:17:49;;;;;;;8.00;3.70;;;;;;;;;;5039179;28;20461;-82
2022/05/29 05:20:15;;;;;;;5.43;3.53;;;;;;;;;;5020709;28;20450;-83
2022/05/29 05:22:42;;;;;;;6.03;3.13;;;;;;;;;;5037474;28;20490;-82
2022/05/29 05:25:09;;;;;;;5.90;3.63;;;;;;;;;;5036532;28;20395;-82
2022/05/29 05:27:35;;;;;;;4.13;2.80;;;;;;;;;;5036683;28;20433;-82
2022/05/29 05:30:01;;;;;;;4.80;3.60;;;;;;;;;;5036592;28;20437;-81
2022/05/29 05:32:27;;;;;;;5.30;3.83;;;;;;;;;;5036147;28;20405;-82
2022/05/29 05:34:53;;;;;;;5.00;3.90;;;;;;;;;;5036830;28;20403;-82
2022/05/29 05:37:19;;;;;;;5.00;3.57;;;;;;;;;;5036565;28;20798;-81
2022/05/29 05:39:45;;;;;;;5.63;3.40;;;;;;;;;;5036579;28;20442;-82
2022/05/29 05:42:11;;;;;;;8.67;3.30;;;;;;;;;;5018900;28;20407;-82
2022/05/29 05:44:37;;;;;;;5.80;4.33;;;;;;;;;;5037870;28;20422;-82
2022/05/29 05:47:03;;;;;;;5.07;3.80;;;;;;;;;;5037789;28;20418;-82
2022/05/29 05:49:29;;;;;;;6.87;3.03;;;;;;;;;;5039083;28;20453;-82
2022/05/29 05:51:58;;;;;;;6.03;3.60;;;;;;;;;;5039391;28;20418;-82
2022/05/29 05:54:24;;;;;;;5.20;3.50;;;;;;;;;;5039988;28;20438;-82
2022/05/29 05:56:51;;;;;;;5.63;3.47;;;;;;;;;;5040740;28;20437;-83
2022/05/29 05:59:17;;;;;;;6.80;3.50;;;;;;;;;;5041097;28;20946;-83
2022/05/29 06:01:43;;;;;;;6.87;3.60;;;;;;;;;;5043507;28;20402;-83
2022/05/29 06:04:09;;;;;;;10.00;3.60;;;;;;;;;;5052439;28;20406;-82
2022/05/29 06:06:35;;;;;;;7.80;3.67;;;;;;;;;;5046842;28;20450;-83
2022/05/29 06:09:01;;;;;;;6.03;3.30;;;;;;;;;;5046121;28;20478;-83
2022/05/29 06:11:28;;;;;;;7.63;2.90;;;;;;;;;;5046045;28;20417;-83
2022/05/29 06:13:55;;;;;;;5.10;3.10;;;;;;;;;;5045787;28;20418;-82
2022/05/29 06:16:21;;;;;;;7.17;3.20;;;;;;;;;;5045332;28;20461;-82
2022/05/29 06:18:47;;;;;;;10.00;3.80;;;;;;;;;;5045304;28;20450;-82
2022/05/29 06:21:14;;;;;;;5.23;2.93;;;;;;;;;;5045218;28;20403;-82
2022/05/29 06:23:40;;;;;;;4.83;3.33;;;;;;;;;;5045139;28;20406;-82
2022/05/29 06:26:08;;;;;;;5.10;3.20;;;;;;;;;;5044796;28;20419;-83
2022/05/29 06:28:34;;;;;;;4.43;3.03;;;;;;;;;;5027916;28;20410;-83
2022/05/29 06:31:03;;;;;;;4.70;3.43;;;;;;;;;;5043441;28;20407;-83
2022/05/29 06:33:29;;;;;;;9.73;4.27;;;;;;;;;;5038051;28;20406;-82
2022/05/29 06:36:05;;;;;;;8.50;3.77;;;;;;;;;;5034110;28;20430;-82
2022/05/29 06:38:31;;;;;;;5.63;3.07;;;;;;;;;;5034135;28;20391;-82
2022/05/29 06:40:57;;;;;;;5.40;2.90;;;;;;;;;;5034614;28;20494;-82
2022/05/29 06:43:23;;;;;;;5.53;3.30;;;;;;;;;;5036029;28;20398;-83
2022/05/29 06:45:56;;;;;;;5.67;3.57;;;;;;;;;;5035445;28;20450;-82
2022/05/29 06:48:22;;;;;;;5.73;2.80;;;;;;;;;;5035453;28;20390;-83
2022/05/29 06:50:48;;;;;;;5.60;3.27;;;;;;;;;;5036369;28;20899;-82
2022/05/29 06:53:14;;;;;;;5.00;2.77;;;;;;;;;;5036998;28;20462;-83
2022/05/29 06:55:40;;;;;;;6.27;3.53;;;;;;;;;;5037700;28;20403;-83
2022/05/29 06:58:06;;;;;;;6.30;2.87;;;;;;;;;;5021026;28;20419;-85
2022/05/29 07:08:28;;;;;;;6.10;3.83;;;;;;;;;;5063724;22;20478;-85
2022/05/29 07:10:57;;;;;;;6.27;3.30;;;;;;;;;;5049575;28;20410;-85
2022/05/29 07:13:23;;;;;;;6.40;3.20;;;;;;;;;;5048809;28;20954;-86
2022/05/29 07:15:49;;;;;;;6.97;3.00;;;;;;;;;;5049356;28;20398;-85
2022/05/29 07:18:15;;;;;;;14.50;3.43;;;;;;;;;;5049891;28;20410;-85
2022/05/29 07:20:41;;;;;;;8.63;3.00;;;;;;;;;;5031473;28;20518;-84
2022/05/29 07:23:07;;;;;;;3.33;2.97;;;;;;;;;;5048770;28;20405;-85
2022/05/29 07:25:33;;;;;;;6.33;2.67;;;;;;;;;;5049040;28;20394;-85
2022/05/29 07:27:59;;;;;;;5.27;2.77;;;;;;;;;;5049209;28;20478;-86
2022/05/29 07:30:25;;;;;;;8.03;3.40;;;;;;;;;;5048655;28;20406;-86
2022/05/29 07:32:51;;;;;;;7.10;3.50;;;;;;;;;;5048375;28;20414;-85
2022/05/29 07:35:18;;;;;;;4.60;2.77;;;;;;;;;;5048837;28;20436;-86
2022/05/29 07:37:44;;;;;;;7.17;3.23;;;;;;;;;;5048766;28;20422;-85
2022/05/29 07:40:10;;;;;;;5.57;3.00;;;;;;;;;;5047886;28;20481;-85
2022/05/29 07:45:21;;;;;;;3.20;2.30;;;;;;;;;;5036825;28;20426;-83
2022/05/29 07:47:47;;;;;;;3.70;2.80;;;;;;;;;;5037829;28;20453;-84
2022/05/29 07:50:19;;;;;;;7.10;2.80;;;;;;;;;;5039797;28;20406;-85
2022/05/29 07:52:45;;;;;;;7.00;3.57;;;;;;;;;;5041117;28;20414;-84
2022/05/29 07:55:13;;;;;;;3.87;2.90;;;;;;;;;;5042250;28;20548;-84
2022/05/29 07:57:39;;;;;;;4.37;2.60;;;;;;;;;;5024181;28;20981;-83
2022/05/29 08:00:07;;;;;;;4.40;2.60;;;;;;;;;;5041243;28;20822;-85
2022/05/29 08:02:34;;;;;;;7.03;4.23;;;;;;;;;;5042079;28;20481;-86
2022/05/29 08:05:01;;;;;;;4.30;3.17;;;;;;;;;;5043506;28;20759;-87
2022/05/29 08:07:27;;;;;;;5.47;3.00;;;;;;;;;;5042054;28;20453;-86
2022/05/29 08:09:53;;;;;;;3.90;3.17;;;;;;;;;;5044352;28;20418;-84
2022/05/29 08:12:19;;;;;;;3.57;2.60;;;;;;;;;;5045094;28;20410;-84
2022/05/29 08:14:45;;;;;;;8.00;3.20;;;;;;;;;;5045102;28;20923;-86
2022/05/29 08:17:11;;;;;;;8.97;3.43;;;;;;;;;;5046621;28;20475;-87
2022/05/29 08:19:38;;;;;;;4.63;3.20;;;;;;;;;;5028932;28;20500;-85
2022/05/29 08:22:04;;;;;;;4.40;3.10;;;;;;;;;;5029967;28;20418;-85
2022/05/29 08:32:57;;;;;;;5.67;3.00;;;;;;;;;;5048070;28;20394;-86
2022/05/29 08:35:23;;;;;;;3.93;3.00;;;;;;;;;;5048293;28;20406;-86
2022/05/29 08:37:49;;;;;;;8.90;3.37;;;;;;;;;;5030969;28;20444;-85
2022/05/29 08:40:15;;;;;;;10.23;2.83;;;;;;;;;;5031430;28;20988;-86
2022/05/29 08:42:42;;;;;;;4.30;3.03;;;;;;;;;;5048165;28;20411;-85
2022/05/29 08:45:12;;;;;;;4.40;2.83;;;;;;;;;;5047681;28;20478;-86
2022/05/29 08:47:41;;;;;;;6.07;3.17;;;;;;;;;;5049853;28;20442;-84
2022/05/29 08:50:08;;;;;;;5.23;3.27;;;;;;;;;;5049507;28;20482;-86
2022/05/29 08:52:52;;;;;;;5.50;3.10;;;;;;;;;;5048527;28;20410;-86
2022/05/29 08:55:25;;;;;;;6.63;3.03;;;;;;;;;;5048386;28;20406;-86
2022/05/29 08:58:06;;;;;;;8.37;3.80;;;;;;;;;;5049106;28;20430;-86
2022/05/29 09:00:44;;;;;;;3.77;3.40;;;;;;;;;;5051853;28;20445;-86
2022/05/29 09:03:19;;;;;;;5.77;3.37;;;;;;;;;;5048255;28;20398;-86
2022/05/29 09:05:55;;;;;;;7.07;3.50;;;;;;;;;;5047498;28;20425;-86
2022/05/29 09:08:27;;;;;;;5.20;3.10;;;;;;;;;;5048082;28;20522;-86
2022/05/29 09:10:56;;;;;;;4.93;2.73;;;;;;;;;;5049016;28;20398;-86
2022/05/29 09:13:32;;;;;;;4.77;3.20;;;;;;;;;;5048460;28;20410;-86
2022/05/29 09:16:02;;;;;;;3.80;3.00;;;;;;;;;;5047579;28;20395;-86
2022/05/29 09:18:37;;;;;;;6.07;2.77;;;;;;;;;;5046638;28;20778;-86
2022/05/29 09:21:03;;;;;;;4.77;3.17;;;;;;;;;;5050950;28;20386;-84
2022/05/29 09:23:34;;;;;;;5.67;2.87;;;;;;;;;;5058211;28;20466;-85
2022/05/29 09:26:00;;;;;;;8.37;3.33;;;;;;;;;;5047833;28;20879;-87
2022/05/29 09:28:32;;;;;;;5.50;3.10;;;;;;;;;;5047872;28;20423;-87
2022/05/29 09:31:07;;;;;;;4.67;2.90;;;;;;;;;;5046716;28;20398;-87
2022/05/29 09:33:33;;;;;;;7.03;3.30;;;;;;;;;;5028616;28;20461;-87
2022/05/29 09:36:03;;;;;;;7.13;2.70;;;;;;;;;;5046796;28;20403;-87
2022/05/29 09:38:29;;;;;;;3.17;2.00;;;;;;;;;;5047057;28;20390;-87
2022/05/29 09:41:10;;;;;;;8.60;2.73;;;;;;;;;;5046285;28;20890;-87
2022/05/29 09:43:36;;;;;;;5.73;2.63;;;;;;;;;;5046917;28;20406;-87
2022/05/29 09:46:20;;;;;;;7.00;3.50;;;;;;;;;;5047551;28;20437;-86
2022/05/29 09:51:43;;;;;;;5.93;3.13;;;;;;;;;;5047105;28;20413;-87
2022/05/29 09:54:10;;;;;;;4.50;2.80;;;;;;;;;;5048326;28;20441;-87
2022/05/29 09:56:36;;;;;;;8.80;4.90;;;;;;;;;;5051154;28;20422;-87
2022/05/29 09:59:04;;;;;;;14.90;4.57;;;;;;;;;;5051416;28;20449;-87
2022/05/29 10:01:30;;;;;;;3.70;2.53;;;;;;;;;;5051262;28;20831;-87
2022/05/29 10:03:57;;;;;;;3.67;2.60;;;;;;;;;;5050225;28;20449;-87
2022/05/29 10:06:27;;;;;;;5.73;3.00;;;;;;;;;;5047686;28;20469;-85
2022/05/29 10:08:54;;;;;;;3.80;2.97;;;;;;;;;;5047628;28;20394;-85
2022/05/29 10:11:20;;;;;;;4.80;2.47;;;;;;;;;;5031063;28;20507;-85
2022/05/29 10:13:47;;;;;;;3.60;2.57;;;;;;;;;;5030452;28;20403;-86
2022/05/29 10:16:14;;;;;;;5.50;2.47;;;;;;;;;;5047935;28;20438;-86
2022/05/29 10:18:43;;;;;;;7.37;2.83;;;;;;;;;;5047199;28;20414;-86
2022/05/29 10:21:09;;;;;;;4.70;3.23;;;;;;;;;;5030259;28;20449;-85
2022/05/29 10:23:36;;;;;;;5.87;2.97;;;;;;;;;;5047606;28;20399;-85
2022/05/29 10:26:10;;;;;;;7.57;3.60;;;;;;;;;;5030585;28;20418;-85
2022/05/29 10:28:37;;;;;;;4.53;3.00;;;;;;;;;;5047902;28;20490;-86
2022/05/29 10:31:07;;;;;;;4.40;2.50;;;;;;;;;;5046418;28;20914;-86
2022/05/29 10:33:34;;;;;;;3.40;2.03;;;;;;;;;;5047326;28;20407;-87
2022/05/29 10:36:09;;;;;;;6.10;2.60;;;;;;;;;;5046838;28;20406;-86
2022/05/29 10:38:36;;;;;;;4.33;2.37;;;;;;;;;;5045557;28;20459;-87
2022/05/29 10:41:03;;;;;;;3.93;2.60;;;;;;;;;;5027451;28;20470;-87
2022/05/29 10:43:34;;;;;;;4.33;2.47;;;;;;;;;;5047855;28;20402;-86
2022/05/29 10:46:24;;;;;;;5.47;2.83;;;;;;;;;;5048924;28;20430;-88
2022/05/29 10:48:56;;;;;;;5.37;2.70;;;;;;;;;;5036575;28;20433;-86
2022/05/29 10:51:22;;;;;;;4.47;2.73;;;;;;;;;;5044810;28;20406;-87
2022/05/29 10:54:06;;;;;;;3.57;2.83;;;;;;;;;;5045410;28;20429;-87
2022/05/29 10:56:42;;;;;;;6.17;3.43;;;;;;;;;;5045449;28;20422;-87
2022/05/29 10:59:18;;;;;;;9.03;3.80;;;;;;;;;;5045307;28;20868;-87
2022/05/29 11:04:57;;;;;;;9.33;6.70;;;;;;;;;;5040380;28;20429;-87
2022/05/29 11:07:23;;;;;;;11.13;7.20;;;;;;;;;;5037983;28;20461;-88
2022/05/29 11:09:49;;;;;;;11.47;8.40;;;;;;;;;;5037323;28;20472;-86
2022/05/29 11:12:15;;;;;;;9.40;6.50;;;;;;;;;;5033683;28;20903;-87
2022/05/29 11:14:59;;;;;;;12.60;6.20;;;;;;;;;;5033561;28;20410;-85
2022/05/29 11:17:41;;;;;;;12.70;6.90;;;;;;;;;;5035552;28;20978;-86
2022/05/29 11:20:14;;;;;;;28.43;7.00;;;;;;;;;;5036403;28;20968;-89
2022/05/29 11:23:09;;;;;;;22.40;7.10;;;10.10;99.90;;;;;;5038994;28;20390;-88
2022/05/29 11:26:01;;;;;;;39.97;9.70;;;7.50;99.90;;;;;;5036994;28;20794;-89
2022/05/29 11:29:10;;;;;;;19.30;8.90;;;6.10;99.90;;;;;;5038627;28;20502;-88
2022/05/29 11:31:46;;;;;;;15.97;10.47;;;6.40;99.90;;;;;;5000882;28;20501;-89
2022/05/29 11:34:20;;;;;;;21.63;13.83;;;7.10;99.90;;;;;;5038776;28;20394;-89
2022/05/29 11:37:13;;;;;;;28.50;17.10;;;7.50;99.90;;;;;;5038846;28;20492;-89
2022/05/29 11:39:48;;;;;;;27.30;17.20;;;8.10;99.90;;;;;;5038757;28;20832;-89
2022/05/29 11:42:27;;;;;;;26.97;17.53;;;8.20;99.90;;;;;;5038497;28;20490;-89
2022/05/29 11:45:16;;;;;;;19.50;13.80;;;8.20;99.90;;;;;;5023489;28;20501;-88
2022/05/29 11:53:34;;;;;;;28.20;17.23;;;7.90;99.90;;;;;;5056072;28;20470;-88
2022/05/29 11:56:05;;;;;;;20.97;15.60;;;8.20;99.90;;;;;;5060007;28;20490;-86
2022/05/29 11:58:35;;;;;;;24.10;16.37;;;;;;;;;;5038723;28;20460;-87
2022/05/29 12:01:02;;;;;;;30.60;16.77;;;;;;;;;;5020749;28;20402;-87
2022/05/29 12:03:46;;;;;;;29.27;19.33;;;;;;;;;;5039706;28;20776;-87
2022/05/29 12:06:12;;;;;;;22.47;17.90;;;;;;;;;;5022241;28;20402;-88
2022/05/29 12:08:47;;;;;;;18.77;14.67;;;;;;;;;;5040474;28;20454;-88
2022/05/29 12:11:43;;;;;;;16.03;14.33;;;;;;;;;;5040814;28;20913;-87
2022/05/29 12:14:13;;;;;;;23.30;17.87;;;;;;;;;;5019587;28;20492;-87
2022/05/29 12:16:41;;;;;;;25.07;17.87;;;;;;;;;;5039837;28;20471;-86
2022/05/29 12:19:18;;;;;;;26.30;17.77;;;;;;;;;;5038360;28;20457;-86
2022/05/29 12:21:53;;;;;;;30.73;19.50;;;;;;;;;;5039478;28;20402;-87
2022/05/29 12:24:28;;;;;;;31.93;19.87;;;;;;;;;;5039477;28;20397;-87
2022/05/29 12:27:04;;;;;;;41.23;23.80;;;;;;;;;;5038365;28;20437;-88
2022/05/29 12:29:34;;;;;;;19.50;14.93;;;;;;;;;;5038633;28;20402;-87
2022/05/29 12:32:05;;;;;;;19.33;14.67;;;;;;;;;;5038922;28;20760;-87
2022/05/29 12:34:42;;;;;;;12.80;10.83;;;;;;;;;;5038969;28;20395;-87
2022/05/29 12:37:08;;;;;;;17.30;12.33;;;;;;;;;;5040365;28;20833;-85
2022/05/29 12:39:49;;;;;;;19.40;12.30;;;;;;;;;;5039280;28;20450;-87
2022/05/29 12:42:21;;;;;;;15.70;11.33;;;;;;;;;;5038394;28;20410;-86
2022/05/29 12:44:53;;;;;;;14.00;10.27;;;;;;;;;;5019630;28;20407;-86
2022/05/29 12:47:19;;;;;;;13.30;10.10;;;;;;;;;;5038953;28;20477;-87
2022/05/29 12:50:00;;;;;;;14.97;12.17;;;;;;;;;;5039035;28;20418;-87
2022/05/29 12:52:32;;;;;;;13.83;8.93;;;;;;;;;;5037962;28;20410;-87
2022/05/29 12:55:13;;;;;;;13.77;9.60;;;;;;;;;;5020664;28;20414;-86
2022/05/29 12:58:03;;;;;;;23.17;13.27;;;;;;;;;;5039400;28;20812;-87
2022/05/29 13:00:47;;;;;;;9.13;7.70;;;;;;;;;;5021375;28;20536;-87
2022/05/29 13:03:35;;;;;;;18.50;12.90;;;;;;;;;;5021512;28;20399;-87
2022/05/29 13:06:10;;;;;;;22.20;14.57;;;;;;;;;;5038197;28;20957;-87
2022/05/29 13:08:36;;;;;;;12.33;6.60;;;;;;;;;;5053968;23;20494;-84
2022/05/29 13:11:03;;;;;;;9.90;8.63;;;;;;;;;;5025564;28;20412;-84
2022/05/29 13:13:34;;;;;;;17.17;14.00;;;;;;;;;;5029453;28;20403;-84
2022/05/29 13:16:18;;;;;;;12.07;8.20;;;;;;;;;;5029658;28;20406;-84
2022/05/29 13:22:04;;;;;;;9.00;6.50;;;;;;;;;;5032608;28;20431;-84
2022/05/29 13:24:36;;;;;;;5.73;5.23;;;;;;;;;;5026651;28;20412;-85
2022/05/29 13:27:17;;;;;;;5.17;3.63;;;;;;;;;;5024630;28;20438;-84
2022/05/29 13:29:44;;;;;;;7.10;3.90;;;;;;;;;;5023846;28;20411;-84
2022/05/29 13:32:13;;;;;;;5.40;3.87;;;;;;;;;;5024789;28;20939;-84
2022/05/29 13:34:44;;;;;;;3.50;2.00;;;;;;;;;;5031311;28;20779;-84
2022/05/29 13:37:21;;;;;;;3.50;3.20;;;;;;;;;;5040531;28;20946;-84
2022/05/29 13:39:54;;;;;;;7.43;5.30;;;;;;;;;;5041772;28;20472;-83
2022/05/29 13:42:26;;;;;;;5.10;4.53;;;;;;;;;;5040453;28;20433;-83
2022/05/29 13:44:53;;;;;;;6.47;5.67;;;;;;;;;;5040663;28;20449;-84
2022/05/29 13:47:19;;;;;;;3.10;2.80;;;;;;;;;;5023822;28;20474;-83
2022/05/29 13:50:05;;;;;;;3.30;2.93;;;;;;;;;;5041393;28;20422;-83
2022/05/29 13:52:34;;;;;;;3.40;2.17;;;;;;;;;;5039924;28;20430;-82
2022/05/29 13:55:10;;;;;;;3.70;2.50;;;;;;;;;;5040992;28;20441;-83
2022/05/29 14:06:19;;;;;;;3.17;2.10;;;;;;;;;;5034503;28;20414;-81
2022/05/29 14:09:00;;;;;;;2.60;1.90;;;;;;;;;;5034225;28;20438;-82
2022/05/29 14:11:41;;;;;;;2.37;1.60;;;;;;;;;;5036410;28;20391;-82
2022/05/29 14:14:26;;;;;;;2.50;1.67;;;;;;;;;;5035856;28;20430;-82
2022/05/29 14:16:52;;;;;;;12.33;8.83;;;;;;;;;;5037392;28;20739;-82
2022/05/29 14:19:27;;;;;;;2.70;1.70;;;;;;;;;;5037474;28;20780;-83
2022/05/29 14:22:12;;;;;;;3.00;1.73;;;;;;;;;;5037362;28;20408;-82
2022/05/29 14:24:41;;;;;;;2.87;1.90;;;;;;;;;;5037805;28;20403;-82
2022/05/29 14:27:16;;;;;;;3.10;2.07;;;;;;;;;;5038602;28;20470;-82
2022/05/29 14:29:57;;;;;;;3.90;1.87;;;;;;;;;;5041835;28;20906;-82
2022/05/29 14:32:32;;;;;;;4.67;2.37;;;;;;;;;;5056157;28;20435;-82
2022/05/29 14:35:04;;;;;;;5.50;1.80;;;;;;;;;;5035162;28;20398;-82
2022/05/29 14:37:30;;;;;;;4.10;2.07;;;;;;;;;;5021478;28;20919;-82
2022/05/29 14:40:04;;;;;;;4.30;2.43;;;;;;;;;;5016855;28;20469;-81
2022/05/29 14:42:40;;;;;;;3.63;2.10;;;;;;;;;;5021989;28;20418;-82
2022/05/29 14:45:10;;;;;;;2.93;1.80;;;;;;;;;;5020542;28;20501;-82
2022/05/29 14:47:40;;;;;;;2.83;1.60;;;;;;;;;;5035671;28;20442;-82
2022/05/29 14:50:17;;;;;;;2.80;2.00;;;;;;;;;;5044167;28;20418;-82
2022/05/29 14:52:46;;;;;;;7.53;2.77;;;;;;;;;;5022528;28;20431;-82
2022/05/29 14:55:18;;;;;;;3.80;1.70;;;;;;;;;;5038294;28;20517;-82
2022/05/29 14:57:46;;;;;;;4.07;1.80;;;;;;;;;;5008511;28;20894;-83
2022/05/29 15:00:47;;;;;;;3.70;1.87;;;;;;;;;;5030396;28;20553;-82
2022/05/29 15:03:18;;;;;;;3.60;1.70;;;;;;;;;;4976821;28;20433;-82
2022/05/29 15:05:50;;;;;;;2.93;1.40;;;;;;;;;;5035976;28;20450;-82
2022/05/29 15:11:05;;;;;;;2.27;1.57;;;;;;;;;;5035668;28;20456;-81
2022/05/29 15:13:56;;;;;;;5.00;1.70;;;;;;;;;;5033560;28;20938;-82
2022/05/29 15:16:21;;;;;;;3.37;1.90;;;;;;;;;;5036185;28;20411;-82
2022/05/29 15:18:48;;;;;;;3.30;1.77;;;;;;;;;;5036071;28;20477;-82
2022/05/29 15:24:14;;;;;;;3.80;1.80;;;;;;;;;;5039678;28;20457;-82
2022/05/29 15:26:45;;;;;;;3.00;1.90;;;;;;;;;;5040663;28;20386;-82
2022/05/29 15:29:14;;;;;;;2.73;1.80;;;;;;;;;;5040164;28;20440;-82
2022/05/29 15:31:41;;;;;;;3.53;1.87;;;;;;;;;;5041545;28;20410;-82
2022/05/29 15:34:10;;;;;;;2.90;1.90;;;;;;;;;;5042045;28;20451;-82
2022/05/29 15:36:36;;;;;;;4.20;2.00;;;;;;;;;;5040497;28;20430;-82
2022/05/29 15:39:11;;;;;;;3.40;2.00;;;;;;;;;;5043299;28;20449;-82
2022/05/29 15:41:40;;;;;;;4.20;2.23;;;;;;;;;;5037087;28;20414;-82
2022/05/29 15:44:06;;;;;;;2.10;1.70;;;;;;;;;;5043608;28;20462;-84
2022/05/29 15:46:40;;;;;;;3.73;2.60;;;;;;;;;;5042714;28;20425;-83
2022/05/29 15:49:25;;;;;;;22.33;4.07;;;;;;;;;;5043665;28;20393;-82
2022/05/29 15:52:10;;;;;;;41.17;5.80;;;;;;;;;;5042839;28;20420;-83
2022/05/29 15:54:51;;;;;;;26.40;7.83;;;;;;;;;;5043314;28;20436;-83